Time;durP1;ratioP1;P1;durP2;ratioP2;P2;SDS_P1;SDS_P2;PMS_P1;PMS_P2;Temp;Humidity;BMP_temperature;BMP_pressure;BME280_temperature;BME280_humidity;BME280_pressure;Samples;Min_cycle;Max_cycle;Signal;HPM_P1;HPM_P2
2022/06/15 00:01:21;;;;;;;;;;;16.40;95.70;;;;;;5092824;28;20284;-69
2022/06/15 00:03:47;;;;;;;;;;;16.40;95.60;;;;;;5092816;28;19912;-69
2022/06/15 00:06:14;;;;;;;;;;;16.40;95.70;;;;;;5074811;28;20199;-69
2022/06/15 00:08:40;;;;;;;;;;;16.40;95.80;;;;;;5092902;28;19912;-69
2022/06/15 00:11:11;;;;;;;;;;;16.40;95.90;;;;;;5092990;28;20359;-69
2022/06/15 00:13:37;;;;;;;;;;;16.40;95.90;;;;;;5092718;28;19914;-69
2022/06/15 00:16:03;;;;;;;;;;;16.40;96.10;;;;;;5092553;28;19920;-69
2022/06/15 00:18:28;;;;;;;;;;;16.40;96.20;;;;;;5092629;28;20427;-70
2022/06/15 00:20:55;;;;;;;;;;;16.30;96.10;;;;;;5092886;28;19951;-69
2022/06/15 00:23:21;;;;;;;;;;;16.40;96.10;;;;;;5093058;28;20359;-69
2022/06/15 00:25:50;;;;;;;;;;;16.30;96.40;;;;;;5092823;28;19966;-69
2022/06/15 00:28:16;;;;;;;;;;;16.30;96.50;;;;;;5092130;28;19949;-69
2022/06/15 00:30:41;;;;;;;;;;;16.30;96.50;;;;;;5092845;28;19916;-69
2022/06/15 00:33:07;;;;;;;;;;;16.30;96.70;;;;;;5092371;28;19912;-70
2022/06/15 00:35:32;;;;;;;;;;;16.20;96.60;;;;;;5092546;28;19930;-69
2022/06/15 00:37:58;;;;;;;;;;;16.10;96.90;;;;;;5092240;28;20317;-69
2022/06/15 00:40:23;;;;;;;;;;;16.10;96.90;;;;;;5091853;28;19959;-69
2022/06/15 00:42:49;;;;;;;;;;;16.00;97.30;;;;;;5092338;28;20005;-70
2022/06/15 00:45:14;;;;;;;;;;;16.00;97.40;;;;;;5092309;28;20271;-69
2022/06/15 00:47:42;;;;;;;;;;;16.00;97.40;;;;;;5073811;28;20368;-70
2022/06/15 00:50:17;;;;;;;;;;;16.00;97.50;;;;;;5092395;28;20567;-70
2022/06/15 00:52:49;;;;;;;;;;;16.00;97.60;;;;;;5091987;28;20372;-70
2022/06/15 00:55:20;;;;;;;;;;;16.00;97.60;;;;;;5092257;28;19912;-70
2022/06/15 00:57:46;;;;;;;;;;;15.90;98.00;;;;;;5091991;28;19922;-70
2022/06/15 01:00:12;;;;;;;;;;;15.80;98.20;;;;;;5092235;28;19912;-70
2022/06/15 01:02:38;;;;;;;;;;;15.80;98.50;;;;;;5091758;28;19920;-70
2022/06/15 01:05:06;;;;;;;;;;;15.70;98.60;;;;;;5073639;28;19918;-70
2022/06/15 01:07:51;;;;;;;;;;;15.70;98.70;;;;;;5091870;28;19917;-69
2022/06/15 01:10:19;;;;;;;;;;;15.70;99.00;;;;;;5092071;28;19916;-70
2022/06/15 01:12:48;;;;;;;;;;;15.60;99.20;;;;;;5073449;28;20260;-70
2022/06/15 01:15:21;;;;;;;;;;;15.60;99.30;;;;;;5091663;28;19916;-70
2022/06/15 01:18:09;;;;;;;;;;;15.60;99.40;;;;;;5091610;28;19920;-69
2022/06/15 01:20:36;;;;;;;;;;;15.60;99.40;;;;;;5083015;28;20414;-70
2022/06/15 01:23:17;;;;;;;;;;;15.60;99.70;;;;;;5091677;28;19961;-70
2022/06/15 01:25:49;;;;;;;;;;;15.50;99.90;;;;;;5091901;28;19919;-69
2022/06/15 01:28:29;;;;;;;;;;;15.50;99.90;;;;;;5091297;28;20023;-70
2022/06/15 01:30:55;;;;;;;;;;;15.50;99.90;;;;;;5091531;28;20009;-70
2022/06/15 01:33:26;;;;;;;;;;;15.40;99.90;;;;;;5091734;28;20395;-69
2022/06/15 01:36:02;;;;;;;;;;;15.40;99.90;;;;;;5091357;28;20375;-70
2022/06/15 01:38:33;;;;;;;;;;;15.40;99.90;;;;;;5091377;28;20271;-69
2022/06/15 01:41:14;;;;;;;;;;;15.30;99.90;;;;;;5091653;28;20049;-70
2022/06/15 01:43:43;;;;;;;;;;;15.30;99.90;;;;;;5091283;28;20011;-70
2022/06/15 01:46:09;;;;;;;;;;;15.30;99.90;;;;;;5091282;28;20436;-69
2022/06/15 01:48:36;;;;;;;;;;;15.30;99.90;;;;;;5091193;28;19912;-69
2022/06/15 01:51:04;;;;;;;;;;;15.20;99.90;;;;;;5091273;28;19923;-69
2022/06/15 01:53:33;;;;;;;;;;;15.00;99.90;;;;;;5094697;28;20272;-70
2022/06/15 01:56:05;;;;;;;;;;;15.00;99.90;;;;;;5095353;28;20493;-69
2022/06/15 01:58:33;;;;;;;;;;;14.90;99.90;;;;;;5076925;28;19915;-69
2022/06/15 02:01:02;;;;;;;;;;;15.00;99.90;;;;;;5095305;28;20283;-69
2022/06/15 02:03:46;;;;;;;;;;;15.00;99.90;;;;;;5095164;28;20347;-69
2022/06/15 02:06:30;;;;;;;;;;;15.00;99.90;;;;;;5095040;28;19917;-69
2022/06/15 02:08:55;;;;;;;;;;;15.10;99.90;;;;;;5095216;28;19916;-69
2022/06/15 02:11:40;;;;;;;;;;;14.90;99.90;;;;;;5095086;28;20367;-70
2022/06/15 02:14:06;;;;;;;;;;;15.00;99.90;;;;;;5095103;28;20359;-70
2022/06/15 02:16:34;;;;;;;;;;;15.00;99.90;;;;;;5094885;28;19955;-70
2022/06/15 02:19:00;;;;;;;;;;;14.80;99.90;;;;;;5095005;28;19912;-70
2022/06/15 02:21:26;;;;;;;;;;;15.00;99.90;;;;;;5076715;28;19912;-71
2022/06/15 02:23:55;;;;;;;;;;;14.90;99.90;;;;;;5094823;28;19912;-71
2022/06/15 02:26:23;;;;;;;;;;;14.90;99.90;;;;;;5094744;28;19916;-70
2022/06/15 02:28:50;;;;;;;;;;;14.80;99.90;;;;;;5094433;28;20389;-70
2022/06/15 02:31:16;;;;;;;;;;;14.80;99.90;;;;;;5094587;28;19927;-69
2022/06/15 02:33:53;;;;;;;;;;;14.80;99.90;;;;;;5093813;28;20129;-70
2022/06/15 02:36:18;;;;;;;;;;;14.80;99.90;;;;;;5094982;28;19916;-70
2022/06/15 02:38:46;;;;;;;;;;;14.80;99.90;;;;;;5094645;28;19915;-70
2022/06/15 02:41:12;;;;;;;;;;;14.80;99.90;;;;;;5076313;28;20007;-70
2022/06/15 02:43:39;;;;;;;;;;;14.70;99.90;;;;;;5094360;28;19908;-70
2022/06/15 02:46:05;;;;;;;;;;;14.70;99.90;;;;;;5094467;28;20368;-70
2022/06/15 02:48:30;;;;;;;;;;;14.80;99.90;;;;;;5076212;28;19919;-69
2022/06/15 02:51:11;;;;;;;;;;;14.70;99.90;;;;;;5094300;28;19977;-70
2022/06/15 02:53:39;;;;;;;;;;;14.70;99.90;;;;;;5094104;28;19915;-69
2022/06/15 02:56:05;;;;;;;;;;;14.60;99.90;;;;;;5094422;28;20022;-70
2022/06/15 02:58:33;;;;;;;;;;;14.60;99.90;;;;;;5093982;28;19919;-70
2022/06/15 03:00:59;;;;;;;;;;;14.50;99.90;;;;;;5094111;28;19927;-69
2022/06/15 03:03:27;;;;;;;;;;;14.50;99.90;;;;;;5093444;28;19908;-69
2022/06/15 03:05:53;;;;;;;;;;;14.50;99.90;;;;;;5093994;28;20383;-70
2022/06/15 03:08:19;;;;;;;;;;;14.50;99.90;;;;;;5093902;28;19912;-69
2022/06/15 03:10:45;;;;;;;;;;;14.60;99.90;;;;;;5094385;28;19931;-70
2022/06/15 03:13:11;;;;;;;;;;;14.60;99.90;;;;;;5093951;28;20372;-69
2022/06/15 03:15:37;;;;;;;;;;;14.60;99.90;;;;;;5094268;28;19908;-69
2022/06/15 03:18:03;;;;;;;;;;;14.60;99.90;;;;;;5093834;28;19954;-70
2022/06/15 03:20:28;;;;;;;;;;;14.70;99.90;;;;;;5094156;28;19943;-69
2022/06/15 03:22:54;;;;;;;;;;;14.70;99.90;;;;;;5093734;28;19952;-70
2022/06/15 03:25:19;;;;;;;;;;;14.70;99.90;;;;;;5075538;28;20267;-70
2022/06/15 03:27:45;;;;;;;;;;;14.60;99.90;;;;;;5075110;28;19930;-69
2022/06/15 03:30:11;;;;;;;;;;;14.70;99.90;;;;;;5093641;28;19920;-69
2022/06/15 03:32:36;;;;;;;;;;;14.60;99.90;;;;;;5092195;28;19940;-70
2022/06/15 03:35:02;;;;;;;;;;;14.70;99.90;;;;;;5093619;28;19937;-69
2022/06/15 03:37:28;;;;;;;;;;;14.60;99.90;;;;;;5093453;28;19923;-70
2022/06/15 03:39:54;;;;;;;;;;;14.60;99.90;;;;;;5093422;28;19912;-69
2022/06/15 03:42:22;;;;;;;;;;;14.70;99.90;;;;;;5093537;28;20271;-71
2022/06/15 03:44:48;;;;;;;;;;;14.80;99.90;;;;;;5093473;28;19984;-71
2022/06/15 03:47:17;;;;;;;;;;;14.80;99.90;;;;;;5093188;28;19924;-71
2022/06/15 03:49:43;;;;;;;;;;;14.80;99.90;;;;;;5091834;28;19995;-70
2022/06/15 03:52:10;;;;;;;;;;;14.90;99.90;;;;;;5093351;28;19912;-70
2022/06/15 03:54:36;;;;;;;;;;;14.90;99.90;;;;;;5093343;28;20403;-71
2022/06/15 03:57:03;;;;;;;;;;;14.90;99.90;;;;;;5093265;28;19927;-70
2022/06/15 03:59:28;;;;;;;;;;;14.90;99.90;;;;;;5093082;28;20034;-69
2022/06/15 04:01:54;;;;;;;;;;;14.90;99.90;;;;;;5093208;28;20006;-68
2022/06/15 04:04:19;;;;;;;;;;;15.00;99.90;;;;;;5092921;28;20011;-70
2022/06/15 04:06:46;;;;;;;;;;;15.00;99.90;;;;;;5092750;28;20409;-69
2022/06/15 04:09:11;;;;;;;;;;;15.00;99.90;;;;;;5092977;28;19912;-69
2022/06/15 04:14:21;;;;;;;;;;;15.10;99.90;;;;;;5092861;28;19957;-68
2022/06/15 04:16:53;;;;;;;;;;;15.00;99.90;;;;;;5091787;28;20318;-69
2022/06/15 04:19:22;;;;;;;;;;;15.20;99.90;;;;;;5092930;28;20309;-69
2022/06/15 04:21:47;;;;;;;;;;;15.20;99.90;;;;;;5092572;28;19920;-69
2022/06/15 04:24:14;;;;;;;;;;;15.30;99.90;;;;;;5092779;28;20430;-69
2022/06/15 04:26:40;;;;;;;;;;;15.30;99.90;;;;;;5092325;28;19973;-69
2022/06/15 04:29:06;;;;;;;;;;;15.30;99.90;;;;;;5092320;28;19972;-69
2022/06/15 04:31:31;;;;;;;;;;;15.20;99.90;;;;;;5092395;28;20010;-69
2022/06/15 04:33:57;;;;;;;;;;;15.40;99.90;;;;;;5092581;28;19987;-69
2022/06/15 04:36:23;;;;;;;;;;;15.40;99.90;;;;;;5092555;28;19916;-69
2022/06/15 04:38:49;;;;;;;;;;;15.50;99.90;;;;;;5092289;28;20347;-68
2022/06/15 04:41:14;;;;;;;;;;;15.50;99.90;;;;;;5092187;28;19912;-69
2022/06/15 04:43:40;;;;;;;;;;;15.60;99.90;;;;;;5092297;28;19955;-70
2022/06/15 04:46:05;;;;;;;;;;;15.60;99.90;;;;;;5092084;28;19918;-70
2022/06/15 04:48:31;;;;;;;;;;;15.60;99.90;;;;;;5092146;28;20318;-71
2022/06/15 04:50:56;;;;;;;;;;;15.70;99.90;;;;;;5073625;28;19912;-70
2022/06/15 04:53:22;;;;;;;;;;;15.80;99.90;;;;;;5092118;28;19955;-70
2022/06/15 04:55:47;;;;;;;;;;;15.80;99.90;;;;;;5092300;28;20344;-71
2022/06/15 04:58:13;;;;;;;;;;;15.80;99.90;;;;;;5092255;28;19916;-69
2022/06/15 05:00:40;;;;;;;;;;;15.80;99.90;;;;;;5092253;28;20086;-69
2022/06/15 05:03:06;;;;;;;;;;;15.90;99.90;;;;;;5091831;28;19991;-68
2022/06/15 05:05:32;;;;;;;;;;;15.80;99.90;;;;;;5092152;28;20023;-69
2022/06/15 05:07:58;;;;;;;;;;;15.80;99.90;;;;;;5091706;28;19920;-69
2022/06/15 05:10:25;;;;;;;;;;;15.80;99.90;;;;;;5092140;28;19923;-67
2022/06/15 05:12:50;;;;;;;;;;;15.90;99.90;;;;;;5091735;28;19999;-69
2022/06/15 05:15:16;;;;;;;;;;;16.00;99.90;;;;;;5091938;28;19955;-70
2022/06/15 05:17:42;;;;;;;;;;;16.10;99.90;;;;;;5091744;28;19923;-68
2022/06/15 05:20:09;;;;;;;;;;;16.10;99.90;;;;;;5091453;28;19912;-68
2022/06/15 05:22:36;;;;;;;;;;;16.00;99.90;;;;;;5091875;28;19919;-69
2022/06/15 05:25:03;;;;;;;;;;;16.00;99.90;;;;;;5091729;28;19916;-69
2022/06/15 05:27:29;;;;;;;;;;;16.00;99.90;;;;;;5091109;28;20379;-69
2022/06/15 05:29:54;;;;;;;;;;;15.90;99.90;;;;;;5091426;28;19928;-68
2022/06/15 05:32:20;;;;;;;;;;;15.90;99.90;;;;;;5091537;28;19994;-70
2022/06/15 05:34:45;;;;;;;;;;;15.90;99.90;;;;;;5091495;28;19918;-70
2022/06/15 05:37:11;;;;;;;;;;;16.00;99.90;;;;;;5091526;28;20284;-69
2022/06/15 05:39:36;;;;;;;;;;;16.00;99.90;;;;;;5091522;28;19916;-69
2022/06/15 05:42:03;;;;;;;;;;;16.20;99.90;;;;;;5091907;28;19916;-70
2022/06/15 05:46:55;;;;;;;;;;;16.30;99.90;;;;;;5091547;28;19994;-69
2022/06/15 05:49:21;;;;;;;;;;;16.30;99.90;;;;;;5091589;28;20367;-69
2022/06/15 05:51:46;;;;;;;;;;;16.30;99.90;;;;;;5091274;28;19970;-68
2022/06/15 05:54:12;;;;;;;;;;;16.60;99.90;;;;;;5091268;28;19972;-69
2022/06/15 05:56:37;;;;;;;;;;;16.60;99.90;;;;;;5091009;28;19916;-69
2022/06/15 05:59:03;;;;;;;;;;;16.70;99.90;;;;;;5091610;28;19923;-69
2022/06/15 06:01:31;;;;;;;;;;;16.90;99.90;;;;;;5090705;28;20049;-69
2022/06/15 06:03:56;;;;;;;;;;;17.10;99.90;;;;;;5091114;28;20329;-70
2022/06/15 06:06:22;;;;;;;;;;;17.10;99.90;;;;;;5090805;28;20006;-69
2022/06/15 06:08:48;;;;;;;;;;;17.20;99.90;;;;;;5091028;28;19923;-69
2022/06/15 06:11:14;;;;;;;;;;;17.30;99.90;;;;;;5090979;28;19966;-69
2022/06/15 06:13:40;;;;;;;;;;;17.40;99.90;;;;;;5090970;28;19983;-70
2022/06/15 06:16:06;;;;;;;;;;;17.50;99.90;;;;;;5091031;28;19912;-70
2022/06/15 06:18:31;;;;;;;;;;;17.50;99.90;;;;;;5090931;28;19908;-70
2022/06/15 06:20:57;;;;;;;;;;;17.50;99.90;;;;;;5090902;28;19967;-69
2022/06/15 06:23:23;;;;;;;;;;;17.50;99.90;;;;;;5090885;28;20427;-69
2022/06/15 06:25:55;;;;;;;;;;;17.50;99.90;;;;;;5091207;28;19912;-69
2022/06/15 06:28:46;;;;;;;;;;;17.40;99.90;;;;;;5090933;28;19916;-69
2022/06/15 06:31:12;;;;;;;;;;;17.40;99.90;;;;;;5087633;28;20077;-68
2022/06/15 06:33:37;;;;;;;;;;;17.60;99.90;;;;;;5090891;28;19943;-69
2022/06/15 06:36:04;;;;;;;;;;;17.60;99.90;;;;;;5090654;28;19963;-69
2022/06/15 06:38:30;;;;;;;;;;;17.50;99.90;;;;;;5090746;28;19908;-69
2022/06/15 06:40:56;;;;;;;;;;;17.60;99.90;;;;;;5094720;28;19916;-69
2022/06/15 06:43:22;;;;;;;;;;;17.70;99.90;;;;;;5076178;28;19916;-69
2022/06/15 06:45:48;;;;;;;;;;;18.00;99.90;;;;;;5076480;28;20365;-70
2022/06/15 06:48:13;;;;;;;;;;;18.30;99.90;;;;;;5075986;28;19954;-69
2022/06/15 06:50:40;;;;;;;;;;;18.40;99.90;;;;;;5094744;28;19908;-69
2022/06/15 06:53:06;;;;;;;;;;;18.50;99.90;;;;;;5094197;28;19924;-69
2022/06/15 06:55:32;;;;;;;;;;;18.50;99.90;;;;;;5094635;28;20428;-69
2022/06/15 06:57:58;;;;;;;;;;;18.60;99.90;;;;;;5094076;28;20056;-69
2022/06/15 07:00:24;;;;;;;;;;;18.60;99.90;;;;;;5093914;28;19965;-69
2022/06/15 07:02:50;;;;;;;;;;;18.60;99.90;;;;;;5093990;28;19920;-69
2022/06/15 07:05:15;;;;;;;;;;;18.60;99.90;;;;;;5094493;28;19919;-69
2022/06/15 07:07:41;;;;;;;;;;;18.70;99.90;;;;;;5093886;28;19982;-68
2022/06/15 07:10:07;;;;;;;;;;;18.80;99.90;;;;;;5094142;28;19908;-69
2022/06/15 07:12:33;;;;;;;;;;;18.90;99.90;;;;;;5093654;28;20012;-69
2022/06/15 07:14:58;;;;;;;;;;;18.80;99.50;;;;;;5094173;28;19908;-69
2022/06/15 07:17:24;;;;;;;;;;;18.90;99.70;;;;;;5075602;28;19939;-69
2022/06/15 07:19:49;;;;;;;;;;;18.90;98.40;;;;;;5094081;28;20223;-70
2022/06/15 07:22:15;;;;;;;;;;;18.90;98.80;;;;;;5093684;28;19970;-70
2022/06/15 07:24:40;;;;;;;;;;;19.00;98.80;;;;;;5093757;28;19908;-70
2022/06/15 07:27:06;;;;;;;;;;;19.20;99.60;;;;;;5093613;28;20220;-70
2022/06/15 07:29:31;;;;;;;;;;;19.40;98.10;;;;;;5093179;28;20327;-71
2022/06/15 07:31:57;;;;;;;;;;;19.60;97.90;;;;;;5093351;28;19919;-71
2022/06/15 07:34:23;;;;;;;;;;;19.60;97.80;;;;;;5093251;28;19965;-70
2022/06/15 07:36:49;;;;;;;;;;;19.30;97.10;;;;;;5093603;28;19912;-71
2022/06/15 07:39:15;;;;;;;;;;;19.20;97.00;;;;;;5093480;28;19935;-70
2022/06/15 07:41:41;;;;;;;;;;;19.10;96.20;;;;;;5093317;28;20421;-71
2022/06/15 07:44:07;;;;;;;;;;;19.30;96.60;;;;;;5093117;28;19912;-71
2022/06/15 07:46:32;;;;;;;;;;;19.50;96.20;;;;;;5074735;28;19961;-71
2022/06/15 07:52:00;;;;;;;;;;;20.10;95.40;;;;;;5018709;28;20226;-70
2022/06/15 07:54:26;;;;;;;;;;;20.20;95.80;;;;;;5080431;28;19923;-70
2022/06/15 07:56:52;;;;;;;;;;;20.50;95.90;;;;;;5092963;28;20360;-70
2022/06/15 07:59:18;;;;;;;;;;;20.70;93.80;;;;;;5093437;28;20269;-69
2022/06/15 08:01:44;;;;;;;;;;;20.70;93.50;;;;;;5093106;28;20380;-69
2022/06/15 08:04:10;;;;;;;;;;;20.80;93.00;;;;;;5074549;28;19919;-70
2022/06/15 08:06:37;;;;;;;;;;;20.80;92.60;;;;;;5092724;28;19996;-70
2022/06/15 08:09:03;;;;;;;;;;;21.00;92.80;;;;;;5092725;28;19916;-70
2022/06/15 08:11:29;;;;;;;;;;;21.20;92.50;;;;;;5092772;28;20002;-70
2022/06/15 08:13:55;;;;;;;;;;;21.50;92.10;;;;;;5092586;28;19987;-70
2022/06/15 08:16:21;;;;;;;;;;;21.70;91.90;;;;;;5093013;28;19966;-69
2022/06/15 08:18:50;;;;;;;;;;;21.70;91.40;;;;;;5092407;28;19920;-70
2022/06/15 08:21:18;;;;;;;;;;;21.70;91.70;;;;;;5092558;28;19920;-70
2022/06/15 08:23:44;;;;;;;;;;;21.80;91.60;;;;;;5092414;28;19912;-69
2022/06/15 08:26:12;;;;;;;;;;;21.80;90.90;;;;;;5092347;28;20006;-70
2022/06/15 08:28:39;;;;;;;;;;;21.80;90.80;;;;;;5091930;28;19912;-69
2022/06/15 08:31:05;;;;;;;;;;;21.90;90.40;;;;;;5092412;28;19920;-69
2022/06/15 08:33:30;;;;;;;;;;;21.80;90.60;;;;;;5092157;28;19953;-69
2022/06/15 08:35:56;;;;;;;;;;;21.80;90.60;;;;;;5092285;28;19989;-70
2022/06/15 08:38:23;;;;;;;;;;;21.60;90.30;;;;;;5091897;28;19912;-69
2022/06/15 08:40:53;;;;;;;;;;;21.50;90.30;;;;;;5092681;28;19908;-69
2022/06/15 08:43:25;;;;;;;;;;;21.70;90.50;;;;;;5092069;28;19920;-69
2022/06/15 08:45:55;;;;;;;;;;;22.10;90.50;;;;;;5092411;28;19908;-69
2022/06/15 08:48:49;;;;;;;;;;;22.50;88.40;;;;;;5091815;28;20431;-69
2022/06/15 08:51:36;;;;;;;;;;;22.40;88.10;;;;;;5092246;28;19977;-69
2022/06/15 08:54:04;;;;;;;;;;;22.00;88.40;;;;;;5091810;28;19909;-69
2022/06/15 08:56:41;;;;;;;;;;;21.60;89.50;;;;;;5091944;28;19923;-69
2022/06/15 08:59:10;;;;;;;;;;;21.80;88.00;;;;;;5091766;28;19995;-69
2022/06/15 09:01:38;;;;;;;;;;;22.30;87.60;;;;;;5073187;28;19962;-69
2022/06/15 09:04:13;;;;;;;;;;;22.50;87.40;;;;;;5091602;28;19912;-69
2022/06/15 09:06:47;;;;;;;;;;;22.00;86.10;;;;;;5091657;28;19923;-70
2022/06/15 09:09:20;;;;;;;;;;;21.70;87.70;;;;;;5091559;28;19908;-69
2022/06/15 09:11:50;;;;;;;;;;;22.10;87.80;;;;;;5091717;28;20011;-69
2022/06/15 09:14:22;;;;;;;;;;;22.50;88.10;;;;;;5091587;28;19961;-69
2022/06/15 09:16:47;;;;;;;;;;;22.50;85.00;;;;;;5091651;28;20341;-69
2022/06/15 09:19:16;;;;;;;;;;;22.60;84.30;;;;;;5091737;28;19912;-68
2022/06/15 09:21:54;;;;;;;;;;;22.70;84.40;;;;;;5091759;28;19916;-69
2022/06/15 09:24:22;;;;;;;;;;;23.00;84.60;;;;;;5091610;28;19908;-68
2022/06/15 09:26:50;;;;;;;;;;;23.60;84.50;;;;;;5091410;28;19920;-70
2022/06/15 09:29:21;;;;;;;;;;;23.80;82.90;;;;;;5091344;28;19973;-69
2022/06/15 09:31:50;;;;;;;;;;;23.60;82.20;;;;;;5073303;28;20389;-69
2022/06/15 09:34:21;;;;;;;;;;;23.80;80.90;;;;;;5091093;28;19919;-68
2022/06/15 09:36:49;;;;;;;;;;;24.10;80.90;;;;;;5091323;28;19916;-69
2022/06/15 09:39:15;;;;;;;;;;;24.50;80.60;;;;;;5091337;28;19997;-68
2022/06/15 09:41:47;;;;;;;;;;;24.50;78.50;;;;;;5091229;28;20022;-68
2022/06/15 09:44:18;;;;;;;;;;;24.10;79.30;;;;;;5091298;28;19912;-68
2022/06/15 09:46:56;;;;;;;;;;;24.20;79.90;;;;;;5091168;28;20389;-69
2022/06/15 09:49:40;;;;;;;;;;;24.30;79.10;;;;;;5091226;28;19916;-67
2022/06/15 09:52:13;;;;;;;;;;;24.60;77.30;;;;;;5091661;28;19945;-68
2022/06/15 09:54:48;;;;;;;;;;;24.90;76.60;;;;;;5091313;28;20007;-69
2022/06/15 09:57:14;;;;;;;;;;;25.10;73.70;;;;;;5091215;28;19916;-68
2022/06/15 09:59:39;;;;;;;;;;;25.10;73.30;;;;;;5091300;28;19912;-68
2022/06/15 10:02:06;;;;;;;;;;;25.40;73.70;;;;;;5091165;28;19916;-68
2022/06/15 10:04:33;;;;;;;;;;;25.50;74.10;;;;;;5091171;28;19919;-68
2022/06/15 10:07:11;;;;;;;;;;;25.50;75.30;;;;;;5090959;28;20003;-68
2022/06/15 10:09:39;;;;;;;;;;;25.70;73.10;;;;;;5091146;28;19917;-68
2022/06/15 10:15:11;;;;;;;;;;;24.60;74.70;;;;;;5094970;28;19966;-69
2022/06/15 10:17:40;;;;;;;;;;;24.00;76.90;;;;;;5095016;28;19916;-68
2022/06/15 10:20:06;;;;;;;;;;;24.00;76.20;;;;;;5094888;28;19912;-69
2022/06/15 10:22:33;;;;;;;;;;;24.40;76.40;;;;;;5094454;28;19930;-68
2022/06/15 10:24:59;;;;;;;;;;;24.60;75.20;;;;;;5094483;28;20276;-69
2022/06/15 10:27:34;;;;;;;;;;;24.40;75.70;;;;;;5094405;28;19961;-68
2022/06/15 10:30:02;;;;;;;;;;;24.60;75.30;;;;;;5094329;28;20018;-68
2022/06/15 10:32:29;;;;;;;;;;;25.20;73.60;;;;;;5094960;28;19992;-68
2022/06/15 10:34:57;;;;;;;;;;;25.60;72.30;;;;;;5094231;28;19916;-68
2022/06/15 10:37:30;;;;;;;;;;;25.90;71.10;;;;;;5094311;28;20061;-69
2022/06/15 10:39:58;;;;;;;;;;;25.90;70.20;;;;;;5094482;28;19912;-69
2022/06/15 10:42:24;;;;;;;;;;;25.90;71.00;;;;;;5094326;28;19916;-69
2022/06/15 10:44:50;;;;;;;;;;;25.50;70.50;;;;;;5094530;28;20343;-69
2022/06/15 10:47:18;;;;;;;;;;;24.70;71.00;;;;;;5094149;28;19916;-69
2022/06/15 10:49:46;;;;;;;;;;;24.00;72.50;;;;;;5094209;28;20042;-69
2022/06/15 10:52:38;;;;;;;;;;;23.40;73.00;;;;;;5094071;28;20342;-70
2022/06/15 11:03:42;;;;;;;;;;;23.40;75.00;;;;;;5089039;28;19934;-69
2022/06/15 11:06:08;;;;;;;;;;;23.60;73.80;;;;;;5093966;28;19916;-69
2022/06/15 11:08:35;;;;;;;;;;;24.30;74.10;;;;;;5093615;28;20003;-70
2022/06/15 11:11:09;;;;;;;;;;;24.90;71.70;;;;;;5093715;28;20265;-70
2022/06/15 11:13:37;;;;;;;;;;;25.00;71.40;;;;;;5093734;28;20403;-70
2022/06/15 11:19:08;;;;;;;;;;;24.30;71.80;;;;;;5093978;28;20266;-70
2022/06/15 11:21:40;;;;;;;;;;;23.80;73.60;;;;;;5093832;28;19939;-70
2022/06/15 11:24:14;;;;;;;;;;;23.50;74.20;;;;;;5093590;28;19950;-70
2022/06/15 11:26:59;;;;;;;;;;;23.80;74.00;;;;;;5093297;28;19912;-70
2022/06/15 11:29:34;;;;;;;;;;;24.30;73.90;;;;;;5093529;28;19920;-70
2022/06/15 11:32:03;;;;;;;;;;;24.80;72.50;;;;;;5093367;28;19913;-70
2022/06/15 11:34:32;;;;;;;;;;;25.20;71.60;;;;;;5093330;28;19912;-69
2022/06/15 11:37:03;;;;;;;;;;;25.10;69.70;;;;;;5093192;28;20019;-70
2022/06/15 11:39:43;;;;;;;;;;;25.10;70.20;;;;;;5093367;28;19916;-70
2022/06/15 11:42:10;;;;;;;;;;;25.10;70.20;;;;;;5093186;28;19912;-69
2022/06/15 11:44:39;;;;;;;;;;;25.20;70.10;;;;;;5093281;28;19961;-70
2022/06/15 11:47:23;;;;;;;;;;;25.40;69.90;;;;;;5092927;28;19920;-69
2022/06/15 11:50:15;;;;;;;;;;;25.70;70.10;;;;;;5093220;28;20349;-70
2022/06/15 11:53:01;;;;;;;;;;;26.10;69.40;;;;;;5089723;28;20169;-70
2022/06/15 11:55:43;;;;;;;;;;;26.40;68.40;;;;;;5093320;28;19958;-70
2022/06/15 11:58:27;;;;;;;;;;;26.50;68.20;;;;;;5093271;28;20046;-70
2022/06/15 12:01:02;;;;;;;;;;;26.60;65.80;;;;;;5092502;28;20239;-70
2022/06/15 12:03:46;;;;;;;;;;;26.60;65.20;;;;;;5092607;28;19908;-69
2022/06/15 12:06:11;;;;;;;;;;;26.40;64.60;;;;;;5092546;28;19919;-69
2022/06/15 12:08:53;;;;;;;;;;;26.00;65.30;;;;;;5092818;28;19995;-69
2022/06/15 12:14:27;;;;;;;;;;;25.90;64.30;;;;;;5092692;28;19962;-70
2022/06/15 12:17:00;;;;;;;;;;;25.60;64.10;;;;;;5092340;28;19913;-69
2022/06/15 12:19:25;;;;;;;;;;;24.40;67.20;;;;;;5092576;28;19912;-70
2022/06/15 12:21:56;;;;;;;;;;;23.80;68.40;;;;;;5092353;28;19981;-70
2022/06/15 12:24:27;;;;;;;;;;;23.70;69.40;;;;;;5092544;28;20324;-70
2022/06/15 12:27:01;;;;;;;;;;;23.90;69.90;;;;;;5092168;28;19934;-69
2022/06/15 12:29:33;;;;;;;;;;;23.80;70.40;;;;;;5092210;28;19963;-69
2022/06/15 12:32:36;;;;;;;;;;;23.90;70.60;;;;;;5073665;28;19919;-69
2022/06/15 12:35:23;;;;;;;;;;;23.70;70.20;;;;;;5092390;28;19912;-69
2022/06/15 12:37:49;;;;;;;;;;;23.70;71.60;;;;;;5091198;28;19912;-70
2022/06/15 12:40:17;;;;;;;;;;;23.70;70.60;;;;;;5092625;28;19922;-69
2022/06/15 12:42:46;;;;;;;;;;;23.40;70.70;;;;;;5092156;28;19916;-69
2022/06/15 12:45:18;;;;;;;;;;;23.10;72.50;;;;;;5092077;28;20388;-69
2022/06/15 12:47:48;;;;;;;;;;;23.10;72.70;;;;;;5091840;28;20135;-70
2022/06/15 12:50:23;;;;;;;;;;;23.10;71.60;;;;;;5092411;28;19916;-69
2022/06/15 12:52:53;;;;;;;;;;;22.80;72.00;;;;;;5091788;28;19913;-69
2022/06/15 12:55:33;;;;;;;;;;;22.50;72.40;;;;;;5092078;28;19916;-69
2022/06/15 12:58:16;;;;;;;;;;;22.40;74.10;;;;;;5091915;28;19934;-68
2022/06/15 13:00:45;;;;;;;;;;;22.60;72.60;;;;;;5092041;28;20356;-69
2022/06/15 13:03:19;;;;;;;;;;;22.90;72.00;;;;;;5091655;28;20327;-70
2022/06/15 13:05:47;;;;;;;;;;;23.30;72.30;;;;;;5092161;28;19912;-70
2022/06/15 13:08:19;;;;;;;;;;;23.60;71.60;;;;;;5091741;28;19958;-69
2022/06/15 13:10:53;;;;;;;;;;;23.60;72.10;;;;;;5092121;28;20010;-69
2022/06/15 13:13:26;;;;;;;;;;;23.50;70.80;;;;;;5091933;28;19943;-69
2022/06/15 13:15:54;;;;;;;;;;;23.50;71.50;;;;;;5091494;28;19916;-69
2022/06/15 13:18:36;;;;;;;;;;;23.50;71.30;;;;;;5091520;28;19916;-69
2022/06/15 13:21:02;;;;;;;;;;;23.70;71.30;;;;;;5091533;28;19916;-69
2022/06/15 13:23:42;;;;;;;;;;;23.70;70.50;;;;;;5073082;28;19951;-70
2022/06/15 13:26:10;;;;;;;;;;;23.70;70.60;;;;;;5091624;28;19912;-69
2022/06/15 13:28:37;;;;;;;;;;;23.60;70.90;;;;;;5091045;28;20305;-70
2022/06/15 13:31:08;;;;;;;;;;;23.70;71.20;;;;;;5091301;28;19956;-69
2022/06/15 13:34:02;;;;;;;;;;;23.60;71.60;;;;;;5091197;28;19959;-69
2022/06/15 13:36:28;;;;;;;;;;;23.30;71.10;;;;;;5077653;28;19916;-70
2022/06/15 13:38:54;;;;;;;;;;;23.00;71.40;;;;;;5091388;28;19999;-70
2022/06/15 13:41:19;;;;;;;;;;;23.10;71.80;;;;;;5091575;28;19965;-69
2022/06/15 13:43:51;;;;;;;;;;;23.10;72.70;;;;;;5091169;28;19908;-69
2022/06/15 13:46:25;;;;;;;;;;;23.20;72.00;;;;;;5091264;28;20006;-70
2022/06/15 13:48:53;;;;;;;;;;;23.40;70.60;;;;;;5075070;28;19919;-70
2022/06/15 13:51:32;;;;;;;;;;;23.40;71.30;;;;;;5095290;28;19969;-69
2022/06/15 13:54:05;;;;;;;;;;;23.30;70.60;;;;;;5095411;28;19912;-70
2022/06/15 13:56:36;;;;;;;;;;;23.30;71.50;;;;;;5095482;28;19916;-69
2022/06/15 13:59:21;;;;;;;;;;;23.30;71.40;;;;;;5094959;28;19912;-69
2022/06/15 14:01:55;;;;;;;;;;;23.40;72.00;;;;;;5095234;28;19923;-69
2022/06/15 14:04:22;;;;;;;;;;;23.30;74.00;;;;;;5095084;28;20390;-69
2022/06/15 14:06:50;;;;;;;;;;;23.20;77.70;;;;;;5094710;28;19920;-69
2022/06/15 14:09:37;;;;;;;;;;;22.90;80.70;;;;;;5094982;28;19908;-69
2022/06/15 14:12:03;;;;;;;;;;;22.60;82.40;;;;;;5094889;28;20003;-69
2022/06/15 14:14:44;;;;;;;;;;;22.30;84.90;;;;;;5095036;28;19915;-69
2022/06/15 14:17:31;;;;;;;;;;;21.90;86.00;;;;;;5094974;28;19920;-69
2022/06/15 14:19:59;;;;;;;;;;;21.70;87.40;;;;;;5095272;28;20011;-69
2022/06/15 14:22:25;;;;;;;;;;;21.30;88.80;;;;;;5094918;28;19969;-69
2022/06/15 14:25:05;;;;;;;;;;;21.10;89.30;;;;;;5094854;28;20007;-69
2022/06/15 14:27:32;;;;;;;;;;;21.00;89.00;;;;;;5094594;28;19920;-70
2022/06/15 14:29:59;;;;;;;;;;;20.90;89.30;;;;;;5094582;28;20003;-68
2022/06/15 14:32:26;;;;;;;;;;;20.80;89.20;;;;;;5094601;28;20353;-69
2022/06/15 14:34:52;;;;;;;;;;;21.00;89.30;;;;;;5094741;28;19919;-69
2022/06/15 14:37:19;;;;;;;;;;;21.10;89.00;;;;;;5094627;28;19912;-69
2022/06/15 14:39:53;;;;;;;;;;;21.10;88.30;;;;;;5094494;28;19921;-69
2022/06/15 14:42:20;;;;;;;;;;;21.10;87.90;;;;;;5094815;28;19912;-69
2022/06/15 14:44:46;;;;;;;;;;;21.10;87.20;;;;;;5094611;28;20351;-69
2022/06/15 14:47:15;;;;;;;;;;;21.20;87.00;;;;;;5094314;28;19920;-69
2022/06/15 14:49:46;;;;;;;;;;;21.40;87.20;;;;;;5094365;28;19912;-69
2022/06/15 14:52:22;;;;;;;;;;;21.50;86.30;;;;;;5094270;28;20002;-69
2022/06/15 14:54:49;;;;;;;;;;;21.70;85.70;;;;;;5093992;28;20256;-69